ENOV/HOV METAR and TAF weather

Enter ICAO airport designator
Station Type Date Time Source
ENOV METAR 2018/04/21 13:20 UTC NOAA

ENOV 211320Z 24008KT 180V280 9999 FEW018 SCT028 BKN040 10/03 Q1018 RMK WIND 2175FT 26009KT


Station Type Date Time Source
ENOV Decoded METAR 2018/04/21 13:20 UTC NOAA

Orsta-Volda / Hovden, Norway (ENOV) 62-11N 006-04E 74M
Apr 21, 2018 - 09:20 AM EDT / 2018.04.21 1320 UTC
Wind: from the WSW (240 degrees) at 9 MPH (8 KT) (direction variable):0
Visibility: greater than 7 mile(s):0
Sky conditions: mostly cloudy
Temperature: 50 F (10 C)
Dew Point: 37 F (3 C)
Relative Humidity: 61%
Pressure (altimeter): 30.06 in. Hg (1018 hPa)
ob: ENOV 211320Z 24008KT 180V280 9999 FEW018 SCT028 BKN040 10/03 Q1018 RMK WIND 2175FT 26009KT
cycle: 13

Station Type Date Time Source
ENOV TAF UTC NOAA

Error!


Example: see airport list